createdAt,value
2019-02-14T00:00:26.235Z,14.10
2019-02-14T00:02:54.775Z,13.25
2019-02-14T00:05:23.334Z,13.45
2019-02-14T00:07:51.900Z,14.00
2019-02-14T00:10:20.430Z,12.45
2019-02-14T00:12:48.842Z,11.83
2019-02-14T00:15:17.463Z,15.00
2019-02-14T00:17:45.943Z,15.05
2019-02-14T00:20:14.393Z,13.62
2019-02-14T00:22:42.876Z,13.85
2019-02-14T00:25:11.399Z,17.30
2019-02-14T00:27:39.923Z,16.00
2019-02-14T00:30:09.928Z,15.03
2019-02-14T00:32:38.437Z,15.38
2019-02-14T00:35:07.205Z,13.85
2019-02-14T00:37:35.711Z,14.68
2019-02-14T00:40:06.442Z,14.93
2019-02-14T00:42:34.945Z,15.60
2019-02-14T00:45:03.553Z,18.05
2019-02-14T00:47:32.236Z,19.20
2019-02-14T00:50:00.715Z,20.45
2019-02-14T00:52:29.276Z,18.60
2019-02-14T00:54:57.851Z,18.85
2019-02-14T00:57:26.398Z,19.10
2019-02-14T00:59:55.045Z,20.80
2019-02-14T01:02:23.517Z,20.60
2019-02-14T01:04:52.055Z,21.15
2019-02-14T01:07:20.696Z,19.50
2019-02-14T01:09:49.194Z,20.65
2019-02-14T01:12:17.721Z,20.70
2019-02-14T01:14:46.334Z,21.02
2019-02-14T01:17:14.791Z,20.08
2019-02-14T01:19:43.262Z,18.60
2019-02-14T01:22:11.827Z,19.32
2019-02-14T01:24:40.270Z,18.65
2019-02-14T01:27:08.892Z,19.17
2019-02-14T01:29:37.466Z,18.65
2019-02-14T01:32:05.948Z,17.50
2019-02-14T01:34:34.432Z,16.67
2019-02-14T01:37:03.012Z,17.80
2019-02-14T01:39:31.466Z,17.23
2019-02-14T01:41:59.964Z,16.00
2019-02-14T01:44:28.552Z,15.45
2019-02-14T01:46:57.191Z,16.57
2019-02-14T01:49:25.668Z,17.27
2019-02-14T01:51:55.277Z,17.12
2019-02-14T01:54:23.834Z,18.82
2019-02-14T01:56:52.311Z,17.57
2019-02-14T01:59:20.922Z,17.73
2019-02-14T02:01:49.500Z,17.92
2019-02-14T02:04:17.951Z,19.23
2019-02-14T02:06:46.563Z,18.40
2019-02-14T02:09:15.070Z,17.70
2019-02-14T02:11:43.561Z,17.45
2019-02-14T02:14:12.279Z,17.67
2019-02-14T02:16:40.783Z,17.75
2019-02-14T02:19:09.296Z,18.37
2019-02-14T02:21:37.861Z,17.73
2019-02-14T02:24:06.381Z,16.82
2019-02-14T02:26:34.900Z,15.65
2019-02-14T02:29:03.499Z,16.02
2019-02-14T02:31:31.984Z,14.75
2019-02-14T02:34:00.526Z,16.90
2019-02-14T02:36:29.225Z,15.23
2019-02-14T02:38:57.825Z,14.78
2019-02-14T02:41:26.278Z,15.13
2019-02-14T02:44:14.313Z,15.50
2019-02-14T02:46:42.822Z,15.20
2019-02-14T02:49:11.312Z,14.85
2019-02-14T02:51:40.841Z,15.93
2019-02-14T02:54:10.363Z,16.57
2019-02-14T02:56:38.958Z,16.65
2019-02-14T02:59:07.437Z,16.42
2019-02-14T03:01:35.863Z,16.77
2019-02-14T03:04:04.367Z,17.23
2019-02-14T03:06:32.890Z,16.60
2019-02-14T03:09:01.327Z,16.20
2019-02-14T03:11:29.973Z,15.85
2019-02-14T03:13:58.526Z,13.75
2019-02-14T03:16:27.081Z,13.18
2019-02-14T03:18:55.695Z,12.58
2019-02-14T03:21:24.178Z,11.43
2019-02-14T03:23:52.700Z,10.93
2019-02-14T03:26:21.268Z,11.65
2019-02-14T03:28:49.720Z,16.10
2019-02-14T03:31:18.295Z,16.07
2019-02-14T03:33:47.740Z,15.75
2019-02-14T03:36:19.154Z,18.70
2019-02-14T03:38:46.470Z,20.15
2019-02-14T03:41:15.086Z,19.90
2019-02-14T03:43:43.599Z,19.87
2019-02-14T03:46:12.093Z,20.82
2019-02-14T03:48:40.507Z,21.73
2019-02-14T03:51:09.137Z,22.27
2019-02-14T03:53:37.619Z,20.08
2019-02-14T03:56:07.194Z,20.10
2019-02-14T03:58:35.785Z,20.12
2019-02-14T04:01:04.298Z,22.07
2019-02-14T04:03:32.809Z,20.70
2019-02-14T04:06:01.394Z,21.50
2019-02-14T04:08:29.986Z,21.25
2019-02-14T04:10:58.515Z,19.82
2019-02-14T04:13:46.624Z,18.05
2019-02-14T04:16:15.071Z,15.93
2019-02-14T04:18:44.520Z,13.68
2019-02-14T04:21:13.192Z,13.53
2019-02-14T04:23:41.699Z,12.20
2019-02-14T04:26:10.224Z,11.97
2019-02-14T04:28:38.680Z,12.50
2019-02-14T04:31:07.158Z,14.20
2019-02-14T04:33:35.770Z,16.00
2019-02-14T04:36:04.282Z,19.25
2019-02-14T04:38:32.989Z,20.92
2019-02-14T04:41:01.543Z,20.55
2019-02-14T04:43:30.074Z,20.02
2019-02-14T04:45:58.550Z,19.35
2019-02-14T04:48:27.072Z,19.98
2019-02-14T04:50:55.525Z,18.17
2019-02-14T04:53:24.091Z,20.52
2019-02-14T04:55:52.607Z,19.60
2019-02-14T04:58:21.150Z,21.62
2019-02-14T05:00:49.690Z,21.42
2019-02-14T05:03:18.172Z,22.48
2019-02-14T05:05:46.758Z,26.05
2019-02-14T05:08:15.429Z,26.70
2019-02-14T05:10:43.923Z,22.32
2019-02-14T05:13:12.366Z,22.95
2019-02-14T05:15:41.110Z,23.62
2019-02-14T05:18:09.607Z,24.40
2019-02-14T05:20:38.106Z,25.48
2019-02-14T05:23:06.691Z,25.60
2019-02-14T05:25:35.209Z,25.60
2019-02-14T05:28:03.730Z,24.87
2019-02-14T05:30:32.250Z,22.07
2019-02-14T05:33:00.732Z,21.17
2019-02-14T05:35:29.166Z,21.17
2019-02-14T05:37:57.943Z,22.25
2019-02-14T05:40:26.496Z,21.65
2019-02-14T05:42:55.003Z,24.18
2019-02-14T05:45:23.455Z,29.98
2019-02-14T05:47:51.965Z,31.30
2019-02-14T05:50:32.665Z,29.98
2019-02-14T05:53:01.092Z,30.97
2019-02-14T05:55:29.692Z,30.20
2019-02-14T05:57:58.367Z,29.07
2019-02-14T06:00:26.926Z,28.30
2019-02-14T06:02:55.345Z,26.62
2019-02-14T06:05:23.939Z,25.40
2019-02-14T06:07:52.402Z,23.38
2019-02-14T06:10:26.001Z,22.73
2019-02-14T06:12:54.673Z,20.43
2019-02-14T06:15:23.273Z,24.65
2019-02-14T06:17:51.817Z,25.40
2019-02-14T06:20:20.371Z,27.50
2019-02-14T06:22:48.814Z,27.13
2019-02-14T06:25:17.296Z,24.20
2019-02-14T06:27:45.887Z,23.83
2019-02-14T06:30:15.199Z,25.05
2019-02-14T06:32:43.775Z,24.98
2019-02-14T06:35:12.329Z,24.85
2019-02-14T06:37:40.866Z,27.37
2019-02-14T06:40:13.569Z,28.52
2019-02-14T06:42:42.282Z,28.83
2019-02-14T06:45:13.358Z,28.80
2019-02-14T06:47:41.862Z,27.95
2019-02-14T06:50:10.661Z,28.67
2019-02-14T06:52:40.409Z,29.05
2019-02-14T06:55:09.496Z,30.92
2019-02-14T06:57:57.437Z,30.57
2019-02-14T07:00:25.919Z,29.35
2019-02-14T07:02:54.386Z,29.45
2019-02-14T07:05:23.269Z,31.37
2019-02-14T07:07:51.826Z,31.42
2019-02-14T07:10:20.514Z,31.82
2019-02-14T07:12:48.990Z,29.05
2019-02-14T07:15:17.521Z,26.10
2019-02-14T07:17:46.061Z,24.15
2019-02-14T07:20:16.146Z,27.60
2019-02-14T07:22:44.788Z,28.45
2019-02-14T07:25:13.326Z,31.17
2019-02-14T07:27:41.744Z,31.90
2019-02-14T07:30:29.739Z,30.77
2019-02-14T07:32:58.260Z,27.87
2019-02-14T07:35:26.846Z,31.15
2019-02-14T07:37:55.403Z,29.90
2019-02-14T07:40:23.892Z,30.08
2019-02-14T07:42:52.457Z,28.35
2019-02-14T07:45:21.061Z,29.67
2019-02-14T07:48:02.537Z,30.72
2019-02-14T07:50:31.078Z,31.95
2019-02-14T07:52:59.495Z,31.40
2019-02-14T07:55:28.105Z,30.55
2019-02-14T07:58:03.550Z,32.13
2019-02-14T08:00:32.944Z,28.67
2019-02-14T08:03:01.482Z,30.15
2019-02-14T08:05:30.091Z,30.08
2019-02-14T08:08:00.547Z,31.90
2019-02-14T08:10:28.665Z,30.88
2019-02-14T08:12:57.359Z,29.82
2019-02-14T08:15:25.967Z,27.70
2019-02-14T08:17:54.432Z,31.52
2019-02-14T08:20:23.009Z,28.95
2019-02-14T08:22:51.487Z,30.97
2019-02-14T08:25:19.976Z,29.07
2019-02-14T08:27:48.589Z,32.00
2019-02-14T08:30:19.482Z,31.85
2019-02-14T08:32:47.974Z,32.33
2019-02-14T08:35:16.542Z,31.87
2019-02-14T08:37:46.294Z,31.05
2019-02-14T08:40:30.542Z,30.88
2019-02-14T08:42:59.097Z,32.73
2019-02-14T08:45:27.906Z,34.08
2019-02-14T08:47:56.424Z,33.20
2019-02-14T08:50:25.032Z,31.57
2019-02-14T08:53:12.913Z,32.90
2019-02-14T08:55:41.511Z,28.50
2019-02-14T08:58:10.038Z,30.97
2019-02-14T09:00:38.526Z,31.65
2019-02-14T09:03:07.131Z,30.45
2019-02-14T09:05:35.604Z,31.73
2019-02-14T09:08:04.164Z,30.65
2019-02-14T09:10:32.690Z,30.80
2019-02-14T09:13:01.178Z,32.10
2019-02-14T09:15:29.631Z,30.75
2019-02-14T09:17:58.131Z,29.85
2019-02-14T09:20:26.766Z,31.30
2019-02-14T09:22:55.278Z,30.30
2019-02-14T09:25:23.841Z,31.50
2019-02-14T09:27:52.367Z,30.95
2019-02-14T09:30:21.041Z,29.10
2019-02-14T09:32:49.631Z,31.05
2019-02-14T09:35:18.283Z,28.98
2019-02-14T09:37:46.742Z,27.80
2019-02-14T09:40:17.388Z,29.63
2019-02-14T09:42:45.952Z,30.75
2019-02-14T09:45:14.752Z,27.17
2019-02-14T09:47:43.267Z,32.08
2019-02-14T09:50:13.199Z,32.40
2019-02-14T09:52:41.955Z,32.38
2019-02-14T09:55:11.816Z,35.33
2019-02-14T09:57:40.314Z,33.13
2019-02-14T10:00:16.907Z,31.42
2019-02-14T10:02:45.553Z,30.82
2019-02-14T10:05:14.933Z,32.63
2019-02-14T10:07:43.511Z,29.40
2019-02-14T10:10:14.546Z,32.93
2019-02-14T10:12:42.992Z,34.88
2019-02-14T10:15:11.657Z,32.63
2019-02-14T10:17:40.237Z,34.03
2019-02-14T10:20:11.976Z,34.48
2019-02-14T10:22:40.549Z,37.25
2019-02-14T10:25:09.121Z,35.33
2019-02-14T10:27:37.546Z,34.18
2019-02-14T10:30:09.399Z,35.78
2019-02-14T10:32:37.901Z,33.85
2019-02-14T10:35:06.355Z,36.10
2019-02-14T10:37:34.968Z,36.20
2019-02-14T10:40:03.824Z,35.28
2019-02-14T10:42:32.313Z,35.48
2019-02-14T10:45:00.892Z,32.28
2019-02-14T10:47:29.469Z,32.70
2019-02-14T10:49:57.900Z,35.48
2019-02-14T10:52:26.446Z,33.35
2019-02-14T10:54:54.959Z,31.05
2019-02-14T10:57:23.607Z,31.37
2019-02-14T10:59:52.098Z,33.30
2019-02-14T11:02:20.698Z,31.37
2019-02-14T11:04:49.211Z,30.95
2019-02-14T11:07:17.720Z,31.97
2019-02-14T11:09:46.370Z,32.80
2019-02-14T11:12:14.799Z,33.28
2019-02-14T11:14:43.290Z,33.90
2019-02-14T11:17:11.796Z,30.48
2019-02-14T11:19:40.311Z,30.75
2019-02-14T11:22:08.813Z,33.42
2019-02-14T11:24:37.398Z,35.63
2019-02-14T11:27:05.849Z,32.78
2019-02-14T11:29:34.452Z,35.90
2019-02-14T11:32:03.128Z,31.45
2019-02-14T11:34:31.719Z,34.90
2019-02-14T11:37:00.196Z,32.83
2019-02-14T11:39:28.711Z,31.15
2019-02-14T11:41:57.112Z,31.52
2019-02-14T11:44:25.624Z,30.82
2019-02-14T11:46:54.240Z,30.70
2019-02-14T11:49:22.763Z,32.17
2019-02-14T11:51:51.194Z,33.25
2019-02-14T11:54:19.862Z,30.95
2019-02-14T11:56:48.413Z,30.80
2019-02-14T11:59:16.914Z,31.07
2019-02-14T12:01:45.626Z,30.68
2019-02-14T12:04:14.117Z,30.88
2019-02-14T12:06:42.677Z,29.27
2019-02-14T12:09:11.512Z,31.12
2019-02-14T12:11:40.025Z,29.30
2019-02-14T12:14:08.530Z,28.00
2019-02-14T12:16:37.066Z,28.67
2019-02-14T12:19:06.531Z,27.05
2019-02-14T12:21:35.055Z,29.00
2019-02-14T12:24:03.587Z,28.32
2019-02-14T12:26:32.189Z,27.07
2019-02-14T12:29:00.685Z,25.82
2019-02-14T12:31:29.127Z,25.70
2019-02-14T12:33:57.660Z,25.17
2019-02-14T12:36:26.091Z,24.65
2019-02-14T12:38:54.663Z,22.10
2019-02-14T12:41:23.264Z,23.95
2019-02-14T12:43:51.820Z,23.05
2019-02-14T12:46:20.417Z,22.42
2019-02-14T12:48:49.114Z,24.27
2019-02-14T12:51:17.593Z,21.40
2019-02-14T12:53:46.147Z,22.50
2019-02-14T12:56:14.726Z,22.42
2019-02-14T12:58:43.240Z,22.80
2019-02-14T13:01:11.792Z,22.67
2019-02-14T13:03:40.319Z,24.30
2019-02-14T13:06:08.872Z,23.65
2019-02-14T13:08:37.464Z,22.07
2019-02-14T13:11:06.016Z,24.47
2019-02-14T13:13:34.542Z,24.75
2019-02-14T13:16:03.282Z,23.57
2019-02-14T13:18:31.867Z,24.72
2019-02-14T13:21:00.308Z,25.02
2019-02-14T13:23:28.878Z,24.35
2019-02-14T13:25:57.313Z,25.52
2019-02-14T13:28:25.817Z,26.75
2019-02-14T13:30:54.363Z,26.37
2019-02-14T13:33:22.982Z,25.02
2019-02-14T13:35:51.564Z,24.00
2019-02-14T13:38:19.998Z,26.30
2019-02-14T13:40:48.522Z,24.02
2019-02-14T13:43:17.115Z,23.65
2019-02-14T13:45:45.645Z,25.48
2019-02-14T13:48:14.144Z,24.27
2019-02-14T13:50:42.688Z,26.97
2019-02-14T13:53:11.332Z,22.15
2019-02-14T13:55:39.829Z,23.25
2019-02-14T13:58:08.504Z,23.18
2019-02-14T14:00:37.015Z,22.77
2019-02-14T14:03:06.654Z,20.15
2019-02-14T14:05:35.356Z,24.23
2019-02-14T14:08:03.928Z,23.35
2019-02-14T14:10:32.535Z,19.42
2019-02-14T14:13:01.025Z,19.37
2019-02-14T14:15:29.536Z,23.50
2019-02-14T14:17:58.282Z,24.90
2019-02-14T14:20:26.770Z,24.85
2019-02-14T14:22:55.318Z,22.93
2019-02-14T14:25:23.884Z,24.35
2019-02-14T14:27:52.382Z,26.20
2019-02-14T14:30:20.961Z,25.17
2019-02-14T14:32:49.413Z,23.80
2019-02-14T14:35:18.123Z,21.65
2019-02-14T14:37:46.721Z,19.40
2019-02-14T14:40:20.488Z,20.48
2019-02-14T14:42:51.965Z,23.07
2019-02-14T14:45:39.089Z,19.77
2019-02-14T14:48:09.091Z,21.35
2019-02-14T14:50:37.671Z,21.37
2019-02-14T14:53:07.539Z,19.73
2019-02-14T14:55:36.261Z,18.48
2019-02-14T14:58:04.679Z,19.02
2019-02-14T15:00:52.634Z,16.95
2019-02-14T15:03:21.276Z,14.45
2019-02-14T15:05:49.790Z,18.25
2019-02-14T15:08:31.235Z,20.25
2019-02-14T15:10:59.652Z,19.05
2019-02-14T15:13:28.228Z,20.17
2019-02-14T15:15:56.726Z,18.73
2019-02-14T15:18:25.147Z,17.37
2019-02-14T15:20:53.734Z,15.68
2019-02-14T15:23:22.166Z,17.92
2019-02-14T15:25:50.592Z,15.13
2019-02-14T15:30:52.984Z,20.40
2019-02-14T15:33:21.426Z,19.60
2019-02-14T15:35:49.941Z,17.35
2019-02-14T15:38:18.479Z,15.55
2019-02-14T15:40:46.939Z,13.40
2019-02-14T15:43:15.445Z,14.18
2019-02-14T15:45:43.962Z,15.75
2019-02-14T15:48:12.577Z,13.70
2019-02-14T15:50:41.129Z,11.93
2019-02-14T15:53:09.658Z,11.68
2019-02-14T15:55:39.000Z,10.23
2019-02-14T15:58:09.270Z,9.65
2019-02-14T16:00:37.832Z,8.65
2019-02-14T16:03:06.426Z,7.50
2019-02-14T16:05:34.880Z,7.03
2019-02-14T16:08:04.906Z,7.78
2019-02-14T16:10:33.680Z,9.63
2019-02-14T16:13:02.252Z,8.73
2019-02-14T16:15:31.634Z,9.10
2019-02-14T16:18:01.637Z,11.25
2019-02-14T16:20:30.435Z,9.78
2019-02-14T16:22:58.935Z,8.68
2019-02-14T16:25:28.236Z,8.23
2019-02-14T16:27:57.042Z,7.25
2019-02-14T16:30:25.612Z,7.33
2019-02-14T16:32:55.064Z,9.23
2019-02-14T16:35:23.503Z,9.48
2019-02-14T16:37:52.094Z,10.85
2019-02-14T16:40:27.656Z,10.65
2019-02-14T16:42:50.779Z,10.48
2019-02-14T16:45:19.265Z,11.55
2019-02-14T16:47:47.705Z,9.53
2019-02-14T16:50:16.312Z,8.78
2019-02-14T16:52:44.804Z,7.97
2019-02-14T16:55:13.323Z,7.72
2019-02-14T16:57:41.925Z,7.55
2019-02-14T17:00:12.167Z,9.58
2019-02-14T17:02:40.601Z,9.30
2019-02-14T17:05:09.155Z,8.40
2019-02-14T17:07:37.583Z,8.20
2019-02-14T17:10:09.414Z,8.23
2019-02-14T17:12:37.895Z,7.50
2019-02-14T17:15:08.716Z,8.60
2019-02-14T17:17:37.220Z,7.58
2019-02-14T17:20:08.806Z,7.10
2019-02-14T17:22:37.457Z,6.42
2019-02-14T17:25:07.088Z,6.20
2019-02-14T17:27:35.582Z,6.40
2019-02-14T17:30:05.118Z,6.17
2019-02-14T17:32:33.605Z,6.40
2019-02-14T17:35:02.189Z,7.12
2019-02-14T17:37:30.634Z,7.08
2019-02-14T17:39:59.052Z,8.15
2019-02-14T17:42:27.722Z,8.80
2019-02-14T17:44:56.130Z,9.08
2019-02-14T17:47:24.594Z,8.65
2019-02-14T17:49:53.003Z,9.28
2019-02-14T17:52:21.559Z,9.30
2019-02-14T17:54:50.065Z,10.72
2019-02-14T17:57:18.563Z,12.18
2019-02-14T17:59:47.201Z,11.78
2019-02-14T18:02:17.216Z,9.85
2019-02-14T18:04:45.726Z,9.60
2019-02-14T18:07:14.301Z,10.45
2019-02-14T18:09:42.747Z,9.53
2019-02-14T18:12:11.239Z,9.38
2019-02-14T18:14:39.804Z,9.28
2019-02-14T18:17:08.260Z,9.65
2019-02-14T18:19:36.760Z,8.63
2019-02-14T18:22:05.324Z,8.28
2019-02-14T18:24:33.857Z,9.95
2019-02-14T18:27:02.356Z,8.70
2019-02-14T18:29:30.976Z,8.20
2019-02-14T18:31:59.590Z,7.78
2019-02-14T18:34:28.039Z,8.03
2019-02-14T18:36:56.501Z,8.33
2019-02-14T18:39:24.896Z,8.00
2019-02-14T18:41:53.416Z,10.45
2019-02-14T18:44:21.914Z,14.73
2019-02-14T18:46:50.416Z,15.60
2019-02-14T18:49:18.886Z,14.30
2019-02-14T18:51:47.359Z,14.07
2019-02-14T18:54:15.780Z,12.78
2019-02-14T18:56:44.283Z,10.88
2019-02-14T18:59:25.164Z,10.32
2019-02-14T19:01:53.705Z,9.83
2019-02-14T19:04:22.105Z,10.00
2019-02-14T19:06:50.648Z,8.93
2019-02-14T19:09:20.557Z,10.65
2019-02-14T19:11:49.175Z,11.20
2019-02-14T19:14:17.711Z,10.43
2019-02-14T19:16:46.215Z,10.50
2019-02-14T19:19:14.759Z,12.03
2019-02-14T19:21:44.226Z,14.15
2019-02-14T19:24:12.631Z,14.03
2019-02-14T19:26:41.269Z,12.50
2019-02-14T19:29:09.796Z,11.70
2019-02-14T19:31:38.278Z,11.00
2019-02-14T19:34:06.800Z,11.57
2019-02-14T19:36:35.514Z,14.63
2019-02-14T19:39:04.698Z,13.15
2019-02-14T19:41:33.280Z,14.58
2019-02-14T19:44:01.867Z,15.18
2019-02-14T19:46:30.425Z,15.55
2019-02-14T19:48:58.955Z,17.67
2019-02-14T19:51:27.595Z,20.85
2019-02-14T19:53:56.057Z,22.75
2019-02-14T19:56:24.552Z,22.10
2019-02-14T19:58:53.042Z,20.23
2019-02-14T20:01:21.508Z,18.37
2019-02-14T20:03:51.132Z,17.70
2019-02-14T20:06:19.539Z,16.97
2019-02-14T20:08:48.041Z,16.00
2019-02-14T20:11:16.553Z,14.90
2019-02-14T20:13:49.602Z,15.83
2019-02-14T20:16:15.512Z,19.80
2019-02-14T20:18:44.197Z,19.42
2019-02-14T20:21:13.079Z,18.32
2019-02-14T20:23:41.765Z,18.00
2019-02-14T20:26:10.564Z,18.80
2019-02-14T20:28:39.449Z,17.85
2019-02-14T20:31:08.484Z,17.10
2019-02-14T20:33:37.464Z,15.83
2019-02-14T20:36:06.786Z,15.45
2019-02-14T20:38:36.229Z,19.95
2019-02-14T20:41:06.557Z,20.25
2019-02-14T20:43:36.056Z,23.70
2019-02-14T20:46:05.558Z,22.82
2019-02-14T20:48:35.084Z,22.13
2019-02-14T20:51:04.469Z,20.08
2019-02-14T20:53:33.594Z,17.02
2019-02-14T20:56:02.354Z,20.75
2019-02-14T20:58:30.933Z,19.65
2019-02-14T21:01:00.008Z,21.20
2019-02-14T21:03:28.598Z,23.07
2019-02-14T21:05:57.163Z,26.50
2019-02-14T21:08:25.581Z,26.02
2019-02-14T21:10:54.082Z,26.48
2019-02-14T21:13:23.672Z,30.17
2019-02-14T21:15:52.138Z,27.98
2019-02-14T21:18:20.676Z,22.93
2019-02-14T21:20:49.539Z,19.32
2019-02-14T21:23:18.042Z,21.05
2019-02-14T21:25:46.686Z,24.45
2019-02-14T21:28:15.411Z,22.85
2019-02-14T21:30:43.916Z,19.70
2019-02-14T21:33:12.407Z,22.17
2019-02-14T21:35:40.933Z,22.80
2019-02-14T21:38:09.564Z,20.50
2019-02-14T21:40:38.046Z,20.45
2019-02-14T21:43:06.584Z,24.85
2019-02-14T21:45:35.139Z,27.93
2019-02-14T21:48:04.670Z,30.27
2019-02-14T21:50:33.226Z,25.57
2019-02-14T21:53:01.807Z,23.07
2019-02-14T21:55:49.818Z,20.75
2019-02-14T21:58:18.285Z,17.67
2019-02-14T22:00:46.806Z,16.02
2019-02-14T22:03:16.479Z,17.05
2019-02-14T22:05:45.005Z,18.02
2019-02-14T22:08:13.646Z,20.20
2019-02-14T22:10:42.185Z,19.52
2019-02-14T22:13:24.779Z,20.43
2019-02-14T22:15:53.572Z,21.50
2019-02-14T22:18:22.096Z,20.43
2019-02-14T22:20:50.562Z,20.72
2019-02-14T22:23:19.028Z,24.25
2019-02-14T22:25:47.492Z,27.02
2019-02-14T22:28:16.053Z,25.70
2019-02-14T22:30:44.459Z,26.65
2019-02-14T22:33:13.055Z,26.57
2019-02-14T22:35:41.604Z,25.23
2019-02-14T22:38:10.171Z,21.40
2019-02-14T22:40:38.619Z,20.02
2019-02-14T22:43:07.156Z,17.70
2019-02-14T22:45:55.046Z,15.58
2019-02-14T22:48:23.633Z,15.93
2019-02-14T22:50:52.168Z,18.85
2019-02-14T22:53:20.709Z,16.57
2019-02-14T22:55:49.147Z,18.27
2019-02-14T22:58:17.707Z,14.60
2019-02-14T23:00:49.911Z,19.45
2019-02-14T23:03:18.510Z,17.87
2019-02-14T23:05:47.050Z,16.35
2019-02-14T23:08:15.547Z,15.93
2019-02-14T23:10:44.060Z,15.50
2019-02-14T23:13:12.699Z,12.65
2019-02-14T23:15:41.104Z,12.28
2019-02-14T23:18:09.584Z,12.40
2019-02-14T23:20:38.149Z,13.15
2019-02-14T23:23:06.655Z,15.25
2019-02-14T23:25:35.071Z,16.52
2019-02-14T23:28:03.718Z,16.30
2019-02-14T23:30:32.148Z,14.20
2019-02-14T23:33:00.963Z,12.53
2019-02-14T23:35:29.535Z,11.95
2019-02-14T23:37:58.003Z,14.30
2019-02-14T23:40:26.406Z,18.30
2019-02-14T23:42:54.904Z,21.23
2019-02-14T23:45:23.409Z,20.97
2019-02-14T23:47:51.902Z,18.50
2019-02-14T23:50:21.240Z,16.67
2019-02-14T23:52:49.708Z,15.65
2019-02-14T23:55:18.088Z,17.12
2019-02-14T23:57:46.570Z,17.35
